createdAt,value
2018-03-18T00:01:11.797Z,8.52
2018-03-18T00:03:40.038Z,8.57
2018-03-18T00:06:07.539Z,7.65
2018-03-18T00:08:35.011Z,13.23
2018-03-18T00:11:02.515Z,14.27
2018-03-18T00:13:30.007Z,10.65
2018-03-18T00:15:58.287Z,9.68
2018-03-18T00:18:26.530Z,10.80
2018-03-18T00:20:54.007Z,11.00
2018-03-18T00:23:22.259Z,7.90
2018-03-18T00:25:50.510Z,7.70
2018-03-18T00:28:17.996Z,6.78
2018-03-18T00:30:46.234Z,6.70
2018-03-18T00:33:13.772Z,3.92
2018-03-18T00:35:41.286Z,4.85
2018-03-18T00:38:08.762Z,4.22
2018-03-18T00:40:37.043Z,4.12
2018-03-18T00:43:04.511Z,3.05
2018-03-18T00:45:32.780Z,5.28
2018-03-18T00:48:01.009Z,4.85
2018-03-18T00:50:28.506Z,4.47
2018-03-18T00:52:55.975Z,4.30
2018-03-18T00:55:24.294Z,1.77
2018-03-18T00:57:51.759Z,3.30
2018-03-18T01:00:19.310Z,2.12
2018-03-18T01:02:46.771Z,3.65
2018-03-18T01:05:15.030Z,3.20
2018-03-18T01:07:42.505Z,2.28
2018-03-18T01:10:09.971Z,2.67
2018-03-18T01:12:37.548Z,3.30
2018-03-18T01:15:05.054Z,3.28
2018-03-18T01:17:32.542Z,2.40
2018-03-18T01:20:00.036Z,2.03
2018-03-18T01:22:27.520Z,2.60
2018-03-18T01:24:55.770Z,2.25
2018-03-18T01:27:23.265Z,2.05
2018-03-18T01:29:50.715Z,1.77
2018-03-18T01:32:18.199Z,2.28
2018-03-18T01:34:45.663Z,2.28
2018-03-18T01:37:13.146Z,2.40
2018-03-18T01:39:40.637Z,2.17
2018-03-18T01:42:08.898Z,1.92
2018-03-18T01:44:37.178Z,2.28
2018-03-18T01:47:05.411Z,2.08
2018-03-18T01:49:32.885Z,1.33
2018-03-18T01:52:00.358Z,1.52
2018-03-18T01:54:27.838Z,1.20
2018-03-18T01:56:56.467Z,1.80
2018-03-18T01:59:23.967Z,2.15
2018-03-18T02:01:52.186Z,2.15
2018-03-18T02:04:19.675Z,1.52
2018-03-18T02:06:47.900Z,1.77
2018-03-18T02:09:15.373Z,1.70
2018-03-18T02:11:42.865Z,1.83
2018-03-18T02:14:10.359Z,1.95
2018-03-18T02:16:38.617Z,3.53
2018-03-18T02:19:06.853Z,3.75
2018-03-18T02:21:34.355Z,2.22
2018-03-18T02:24:02.580Z,2.55
2018-03-18T02:26:30.078Z,2.92
2018-03-18T02:28:57.549Z,3.60
2018-03-18T02:31:25.767Z,1.37
2018-03-18T02:33:53.248Z,2.25
2018-03-18T02:36:20.737Z,1.90
2018-03-18T02:38:48.249Z,1.87
2018-03-18T02:41:15.713Z,2.00
2018-03-18T02:43:43.216Z,1.40
2018-03-18T02:46:11.448Z,2.10
2018-03-18T02:48:38.970Z,1.58
2018-03-18T02:51:06.422Z,1.67
2018-03-18T02:53:34.678Z,2.12
2018-03-18T02:56:02.913Z,2.97
2018-03-18T02:58:30.378Z,2.33
2018-03-18T03:00:57.875Z,1.95
2018-03-18T03:03:26.225Z,1.77
2018-03-18T03:05:53.689Z,1.55
2018-03-18T03:08:21.163Z,2.00
2018-03-18T03:10:49.402Z,2.87
2018-03-18T03:13:16.862Z,2.75
2018-03-18T03:15:44.333Z,1.73
2018-03-18T03:18:11.865Z,1.77
2018-03-18T03:20:39.354Z,1.50
2018-03-18T03:23:06.870Z,2.75
2018-03-18T03:25:35.462Z,1.70
2018-03-18T03:28:02.950Z,1.12
2018-03-18T03:30:31.220Z,1.52
2018-03-18T03:32:58.693Z,2.50
2018-03-18T03:35:26.167Z,1.58
2018-03-18T03:37:54.432Z,1.33
2018-03-18T03:40:21.896Z,1.35
2018-03-18T03:42:49.385Z,2.53
2018-03-18T03:45:16.901Z,0.98
2018-03-18T03:47:44.372Z,1.25
2018-03-18T03:50:12.589Z,1.67
2018-03-18T03:52:40.071Z,1.67
2018-03-18T03:55:07.572Z,1.30
2018-03-18T03:57:35.809Z,1.98
2018-03-18T04:00:03.290Z,1.23
2018-03-18T04:02:30.746Z,2.45
2018-03-18T04:04:59.160Z,1.25
2018-03-18T04:07:26.631Z,2.12
2018-03-18T04:09:54.114Z,1.70
2018-03-18T04:12:21.569Z,1.30
2018-03-18T04:14:49.051Z,1.70
2018-03-18T04:17:16.537Z,1.50
2018-03-18T04:19:44.762Z,1.90
2018-03-18T04:22:12.228Z,2.67
2018-03-18T04:24:39.719Z,1.77
2018-03-18T04:27:07.172Z,2.00
2018-03-18T04:29:35.419Z,2.35
2018-03-18T04:32:02.893Z,2.20
2018-03-18T04:34:30.362Z,1.05
2018-03-18T04:36:58.604Z,1.58
2018-03-18T04:39:26.065Z,1.98
2018-03-18T04:41:53.730Z,2.75
2018-03-18T04:44:21.185Z,1.83
2018-03-18T04:46:48.641Z,1.83
2018-03-18T04:49:16.169Z,1.58
2018-03-18T04:51:43.680Z,2.00
2018-03-18T04:54:11.141Z,2.22
2018-03-18T04:56:38.621Z,2.08
2018-03-18T04:59:06.137Z,2.00
2018-03-18T05:01:33.629Z,2.25
2018-03-18T05:04:01.875Z,3.30
2018-03-18T05:06:29.369Z,2.28
2018-03-18T05:08:56.831Z,2.10
2018-03-18T05:11:24.310Z,2.53
2018-03-18T05:13:51.784Z,1.95
2018-03-18T05:16:19.278Z,1.90
2018-03-18T05:18:46.764Z,1.90
2018-03-18T05:21:14.257Z,2.00
2018-03-18T05:23:41.721Z,3.55
2018-03-18T05:26:09.194Z,3.03
2018-03-18T05:28:36.828Z,3.03
2018-03-18T05:31:04.307Z,2.72
2018-03-18T05:33:31.774Z,2.55
2018-03-18T05:35:59.296Z,2.12
2018-03-18T05:38:26.788Z,3.10
2018-03-18T05:40:54.272Z,2.90
2018-03-18T05:43:22.527Z,3.28
2018-03-18T05:45:49.996Z,2.90
2018-03-18T05:48:17.490Z,3.15
2018-03-18T05:50:44.960Z,3.10
2018-03-18T05:53:12.446Z,3.60
2018-03-18T05:55:39.936Z,2.03
2018-03-18T05:58:08.211Z,2.28
2018-03-18T06:00:36.446Z,3.97
2018-03-18T06:03:03.902Z,2.85
2018-03-18T06:05:31.382Z,2.03
2018-03-18T06:07:58.845Z,2.75
2018-03-18T06:10:26.359Z,2.00
2018-03-18T06:12:53.822Z,1.92
2018-03-18T06:15:21.306Z,1.75
2018-03-18T06:17:48.782Z,2.45
2018-03-18T06:20:16.254Z,5.00
2018-03-18T06:22:43.794Z,3.55
2018-03-18T06:25:11.290Z,2.65
2018-03-18T06:27:38.761Z,40.28
2018-03-18T06:30:06.252Z,35.40
2018-03-18T06:32:33.827Z,32.65
2018-03-18T06:35:01.300Z,33.10
2018-03-18T06:37:29.595Z,44.00
2018-03-18T06:39:58.564Z,40.90
2018-03-18T06:42:26.810Z,38.40
2018-03-18T06:44:54.316Z,33.50
2018-03-18T06:47:22.555Z,31.48
2018-03-18T06:49:50.114Z,34.55
2018-03-18T06:52:17.628Z,32.15
2018-03-18T06:54:45.124Z,32.92
2018-03-18T06:57:13.361Z,29.50
2018-03-18T06:59:40.859Z,28.92
2018-03-18T07:02:08.345Z,30.42
2018-03-18T07:04:36.658Z,30.95
2018-03-18T07:07:04.148Z,31.25
2018-03-18T07:09:31.630Z,31.80
2018-03-18T07:11:59.879Z,33.40
2018-03-18T07:14:27.379Z,29.08
2018-03-18T07:16:55.612Z,30.20
2018-03-18T07:19:23.103Z,28.00
2018-03-18T07:21:51.349Z,32.55
2018-03-18T07:24:18.944Z,35.88
2018-03-18T07:26:46.361Z,29.27
2018-03-18T07:29:13.931Z,27.52
2018-03-18T07:31:41.555Z,29.52
2018-03-18T07:34:09.015Z,28.60
2018-03-18T07:36:36.510Z,30.02
2018-03-18T07:39:04.019Z,26.17
2018-03-18T07:41:31.515Z,27.50
2018-03-18T07:43:58.983Z,29.10
2018-03-18T07:46:26.476Z,26.42
2018-03-18T07:48:53.938Z,30.65
2018-03-18T07:51:21.442Z,28.42
2018-03-18T07:53:48.942Z,30.80
2018-03-18T07:56:17.233Z,26.98
2018-03-18T07:58:45.477Z,29.20
2018-03-18T08:01:12.951Z,29.20
2018-03-18T08:03:41.239Z,26.95
2018-03-18T08:06:08.728Z,29.10
2018-03-18T08:08:36.222Z,29.83
2018-03-18T08:11:03.744Z,31.48
2018-03-18T08:13:31.256Z,32.53
2018-03-18T08:15:59.501Z,25.90
2018-03-18T08:18:27.017Z,26.30
2018-03-18T08:20:54.507Z,25.35
2018-03-18T08:23:21.968Z,26.75
2018-03-18T08:25:49.459Z,29.70
2018-03-18T08:28:17.702Z,26.17
2018-03-18T08:30:45.218Z,26.08
2018-03-18T08:33:12.671Z,22.83
2018-03-18T08:35:40.167Z,25.92
2018-03-18T08:38:07.666Z,26.83
2018-03-18T08:40:35.163Z,25.40
2018-03-18T08:43:02.631Z,26.60
2018-03-18T08:45:30.133Z,24.90
2018-03-18T08:47:57.675Z,22.77
2018-03-18T08:50:25.177Z,24.77
2018-03-18T08:52:53.407Z,23.17
2018-03-18T08:55:21.809Z,22.15
2018-03-18T08:57:50.082Z,24.80
2018-03-18T09:00:17.562Z,111.22
2018-03-18T09:02:45.838Z,26.20
2018-03-18T09:05:13.321Z,20.98
2018-03-18T09:07:40.823Z,22.45
2018-03-18T09:10:08.300Z,24.42
2018-03-18T09:12:36.579Z,22.20
2018-03-18T09:15:04.834Z,23.08
2018-03-18T09:17:32.326Z,27.73
2018-03-18T09:20:00.579Z,27.92
2018-03-18T09:22:28.814Z,26.45
2018-03-18T09:24:56.323Z,23.33
2018-03-18T09:27:24.586Z,22.65
2018-03-18T09:29:52.075Z,21.00
2018-03-18T09:32:19.553Z,23.95
2018-03-18T09:34:47.095Z,23.45
2018-03-18T09:37:14.586Z,22.02
2018-03-18T09:39:42.172Z,23.05
2018-03-18T09:42:09.663Z,20.90
2018-03-18T09:44:37.896Z,21.87
2018-03-18T09:47:05.417Z,25.25
2018-03-18T09:49:32.894Z,20.05
2018-03-18T09:52:00.410Z,25.30
2018-03-18T09:54:27.914Z,22.27
2018-03-18T09:56:55.441Z,19.70
2018-03-18T09:59:22.912Z,20.70
2018-03-18T10:01:50.429Z,21.20
2018-03-18T10:04:17.922Z,25.50
2018-03-18T10:06:45.414Z,21.10
2018-03-18T10:09:12.941Z,21.37
2018-03-18T10:11:40.410Z,23.62
2018-03-18T10:14:07.876Z,21.80
2018-03-18T10:16:35.390Z,25.05
2018-03-18T10:19:03.654Z,21.10
2018-03-18T10:21:31.180Z,24.73
2018-03-18T10:23:58.679Z,21.90
2018-03-18T10:26:26.918Z,19.58
2018-03-18T10:28:54.389Z,21.67
2018-03-18T10:31:22.702Z,23.33
2018-03-18T10:33:50.230Z,21.12
2018-03-18T10:36:17.738Z,19.70
2018-03-18T10:38:45.237Z,19.02
2018-03-18T10:41:12.750Z,22.62
2018-03-18T10:43:40.241Z,22.02
2018-03-18T10:46:07.731Z,22.92
2018-03-18T10:48:35.991Z,23.65
2018-03-18T10:51:03.478Z,27.87
2018-03-18T10:53:31.784Z,27.98
2018-03-18T10:55:59.260Z,20.40
2018-03-18T10:58:26.782Z,20.83
2018-03-18T11:00:54.326Z,27.40
2018-03-18T11:03:23.509Z,22.58
2018-03-18T11:05:51.112Z,21.12
2018-03-18T11:08:18.617Z,23.55
2018-03-18T11:10:46.118Z,24.02
2018-03-18T11:13:13.995Z,19.37
2018-03-18T11:15:41.578Z,28.75
2018-03-18T11:18:09.091Z,21.00
2018-03-18T11:20:37.351Z,21.17
2018-03-18T11:23:04.847Z,23.40
2018-03-18T11:25:32.336Z,22.33
2018-03-18T11:27:59.839Z,23.77
2018-03-18T11:30:28.150Z,21.92
2018-03-18T11:32:55.936Z,21.17
2018-03-18T11:35:23.456Z,25.90
2018-03-18T11:37:51.074Z,21.92
2018-03-18T11:40:18.783Z,22.23
2018-03-18T11:42:46.280Z,22.27
2018-03-18T11:45:14.560Z,24.77
2018-03-18T11:47:42.049Z,22.42
2018-03-18T11:50:10.311Z,21.83
2018-03-18T11:52:37.872Z,25.27
2018-03-18T11:55:05.358Z,23.27
2018-03-18T11:57:32.845Z,21.73
2018-03-18T12:00:00.339Z,22.83
2018-03-18T12:02:27.821Z,21.60
2018-03-18T12:04:56.130Z,23.98
2018-03-18T12:07:24.053Z,27.02
2018-03-18T12:09:51.553Z,21.20
2018-03-18T12:12:19.039Z,20.58
2018-03-18T12:14:46.532Z,19.98
2018-03-18T12:17:14.806Z,22.30
2018-03-18T12:19:42.311Z,21.83
2018-03-18T12:22:09.820Z,20.27
2018-03-18T12:24:38.064Z,22.23
2018-03-18T12:27:05.577Z,23.42
2018-03-18T12:29:33.869Z,20.80
2018-03-18T12:32:01.380Z,22.60
2018-03-18T12:34:28.883Z,23.20
2018-03-18T12:36:56.388Z,18.73
2018-03-18T12:39:23.917Z,22.98
2018-03-18T12:41:51.679Z,22.20
2018-03-18T12:44:19.922Z,22.62
2018-03-18T12:46:48.406Z,21.10
2018-03-18T12:49:16.704Z,21.92
2018-03-18T12:51:44.219Z,24.63
2018-03-18T12:54:11.759Z,21.98
2018-03-18T12:56:39.235Z,23.17
2018-03-18T12:59:06.717Z,23.42
2018-03-18T13:01:34.994Z,46.28
2018-03-18T13:04:03.268Z,24.98
2018-03-18T13:06:31.534Z,24.75
2018-03-18T13:08:59.797Z,24.80
2018-03-18T13:11:27.305Z,23.95
2018-03-18T13:13:54.912Z,22.75
2018-03-18T13:16:22.348Z,26.90
2018-03-18T13:18:49.950Z,22.23
2018-03-18T13:21:18.215Z,25.45
2018-03-18T13:23:46.473Z,22.00
2018-03-18T13:26:13.955Z,25.30
2018-03-18T13:28:42.240Z,27.80
2018-03-18T13:31:10.475Z,25.02
2018-03-18T13:33:37.954Z,22.87
2018-03-18T13:36:05.488Z,23.73
2018-03-18T13:38:32.979Z,26.85
2018-03-18T13:41:00.551Z,27.40
2018-03-18T13:43:28.800Z,22.25
2018-03-18T13:45:56.310Z,24.02
2018-03-18T13:48:23.801Z,23.17
2018-03-18T13:50:51.335Z,23.98
2018-03-18T13:53:18.870Z,23.62
2018-03-18T13:55:46.373Z,23.15
2018-03-18T13:58:14.203Z,24.70
2018-03-18T14:00:41.883Z,28.90
2018-03-18T14:03:09.387Z,22.33
2018-03-18T14:05:36.885Z,25.20
2018-03-18T14:08:04.406Z,23.85
2018-03-18T14:10:31.917Z,27.70
2018-03-18T14:12:59.426Z,24.63
2018-03-18T14:15:28.930Z,22.45
2018-03-18T14:17:56.594Z,25.00
2018-03-18T14:20:24.086Z,26.10
2018-03-18T14:22:51.572Z,23.92
2018-03-18T14:25:19.149Z,22.52
2018-03-18T14:27:46.668Z,26.83
2018-03-18T14:30:14.226Z,22.65
2018-03-18T14:32:41.835Z,25.73
2018-03-18T14:35:09.399Z,27.25
2018-03-18T14:37:36.874Z,26.77
2018-03-18T14:40:05.253Z,24.73
2018-03-18T14:42:33.516Z,24.98
2018-03-18T14:45:01.030Z,22.65
2018-03-18T14:47:28.537Z,24.30
2018-03-18T14:49:56.031Z,26.52
2018-03-18T14:52:23.568Z,22.70
2018-03-18T14:54:51.865Z,24.15
2018-03-18T14:57:19.396Z,26.60
2018-03-18T14:59:47.640Z,24.83
2018-03-18T15:02:15.189Z,26.02
2018-03-18T15:04:42.682Z,37.20
2018-03-18T15:07:10.215Z,28.67
2018-03-18T15:09:37.715Z,49.63
2018-03-18T15:12:05.982Z,40.75
2018-03-18T15:14:34.244Z,34.33
2018-03-18T15:17:02.560Z,26.45
2018-03-18T15:19:30.155Z,39.63
2018-03-18T15:21:57.707Z,44.45
2018-03-18T15:24:25.225Z,30.98
2018-03-18T15:26:53.511Z,27.92
2018-03-18T15:29:21.107Z,30.83
2018-03-18T15:31:48.644Z,28.85
2018-03-18T15:34:16.172Z,27.73
2018-03-18T15:36:44.453Z,40.95
2018-03-18T15:39:12.718Z,41.17
2018-03-18T15:41:41.089Z,29.37
2018-03-18T15:44:08.581Z,31.35
2018-03-18T15:46:36.074Z,32.58
2018-03-18T15:49:03.599Z,28.20
2018-03-18T15:51:31.130Z,32.05
2018-03-18T15:53:59.380Z,31.40
2018-03-18T15:56:26.963Z,37.70
2018-03-18T15:58:54.685Z,43.80
2018-03-18T16:01:22.185Z,30.35
2018-03-18T16:03:49.718Z,32.33
2018-03-18T16:06:17.233Z,34.75
2018-03-18T16:08:44.772Z,37.20
2018-03-18T16:11:12.291Z,31.73
2018-03-18T16:13:39.849Z,40.80
2018-03-18T16:16:07.399Z,54.30
2018-03-18T16:18:34.922Z,70.05
2018-03-18T16:21:02.423Z,46.17
2018-03-18T16:23:29.932Z,36.45
2018-03-18T16:25:58.169Z,41.47
2018-03-18T16:28:25.636Z,44.92
2018-03-18T16:31:13.157Z,39.58
2018-03-18T16:33:40.639Z,39.65
2018-03-18T16:36:08.969Z,38.88
2018-03-18T16:38:36.467Z,36.38
2018-03-18T16:41:04.729Z,41.53
2018-03-18T16:43:32.256Z,41.25
2018-03-18T16:45:59.803Z,37.33
2018-03-18T16:48:27.348Z,33.03
2018-03-18T16:50:54.868Z,33.85
2018-03-18T16:53:22.409Z,39.92
2018-03-18T16:55:49.955Z,42.75
2018-03-18T16:58:17.411Z,36.00
2018-03-18T17:00:44.957Z,33.53
2018-03-18T17:03:12.523Z,35.88
2018-03-18T17:05:40.027Z,31.42
2018-03-18T17:08:07.539Z,29.83
2018-03-18T17:10:35.101Z,31.87
2018-03-18T17:13:02.713Z,31.73
2018-03-18T17:15:30.213Z,31.48
2018-03-18T17:17:57.705Z,37.00
2018-03-18T17:20:25.250Z,36.22
2018-03-18T17:22:52.762Z,34.95
2018-03-18T17:25:21.044Z,34.42
2018-03-18T17:27:49.583Z,42.03
2018-03-18T17:30:17.635Z,41.28
2018-03-18T17:32:45.243Z,33.40
2018-03-18T17:35:13.517Z,36.05
2018-03-18T17:37:41.781Z,33.83
2018-03-18T17:40:09.306Z,36.50
2018-03-18T17:42:36.799Z,33.40
2018-03-18T17:45:16.219Z,40.45
2018-03-18T17:47:55.873Z,36.35
2018-03-18T17:50:44.991Z,37.95
2018-03-18T17:53:24.397Z,34.03
2018-03-18T17:56:04.531Z,32.55
2018-03-18T17:58:32.032Z,38.92
2018-03-18T18:00:59.603Z,32.05
2018-03-18T18:03:27.176Z,34.85
2018-03-18T18:05:55.849Z,38.65
2018-03-18T18:08:23.418Z,32.38
2018-03-18T18:10:50.914Z,31.37
2018-03-18T18:13:18.414Z,38.10
2018-03-18T18:15:45.986Z,30.30
2018-03-18T18:18:13.570Z,38.60
2018-03-18T18:20:41.059Z,58.92
2018-03-18T18:23:08.638Z,89.57
2018-03-18T18:25:36.899Z,44.28
2018-03-18T18:28:05.194Z,65.12
2018-03-18T18:30:33.811Z,38.00
2018-03-18T18:33:01.355Z,47.22
2018-03-18T18:35:28.887Z,44.20
2018-03-18T18:37:57.135Z,43.20
2018-03-18T18:40:24.684Z,47.47
2018-03-18T18:42:52.191Z,44.05
2018-03-18T18:45:20.477Z,59.53
2018-03-18T18:47:47.986Z,43.87
2018-03-18T18:50:15.509Z,35.40
2018-03-18T18:52:43.144Z,35.97
2018-03-18T18:55:11.978Z,34.65
2018-03-18T18:57:39.604Z,32.97
2018-03-18T19:00:07.141Z,47.47
2018-03-18T19:02:35.471Z,45.70
2018-03-18T19:05:03.019Z,39.17
2018-03-18T19:07:30.543Z,44.42
2018-03-18T19:09:59.318Z,54.50
2018-03-18T19:12:27.749Z,44.60
2018-03-18T19:14:55.255Z,44.78
2018-03-18T19:17:22.786Z,47.45
2018-03-18T19:19:50.351Z,35.50
2018-03-18T19:22:17.993Z,47.83
2018-03-18T19:24:45.494Z,34.72
2018-03-18T19:27:13.031Z,42.42
2018-03-18T19:29:40.569Z,34.00
2018-03-18T19:32:08.256Z,34.40
2018-03-18T19:34:35.810Z,36.42
2018-03-18T19:37:03.321Z,31.27
2018-03-18T19:39:30.886Z,42.90
2018-03-18T19:41:58.384Z,33.55
2018-03-18T19:44:25.973Z,80.40
2018-03-18T19:46:53.525Z,65.25
2018-03-18T19:49:21.024Z,60.88
2018-03-18T19:51:48.589Z,41.30
2018-03-18T19:54:16.143Z,37.00
2018-03-18T19:56:43.753Z,70.97
2018-03-18T19:59:11.339Z,37.95
2018-03-18T20:01:38.891Z,58.53
2018-03-18T20:04:06.375Z,43.00
2018-03-18T20:06:33.942Z,54.78
2018-03-18T20:09:01.450Z,47.88
2018-03-18T20:11:28.997Z,61.15
2018-03-18T20:13:56.645Z,39.92
2018-03-18T20:16:25.848Z,40.83
2018-03-18T20:18:53.452Z,41.03
2018-03-18T20:21:21.780Z,37.42
2018-03-18T20:23:49.545Z,37.75
2018-03-18T20:26:17.086Z,48.42
2018-03-18T20:28:44.640Z,43.83
2018-03-18T20:31:12.303Z,38.28
2018-03-18T20:33:39.843Z,43.10
2018-03-18T20:36:08.143Z,46.35
2018-03-18T20:38:35.646Z,33.10
2018-03-18T20:41:03.166Z,46.80
2018-03-18T20:43:30.636Z,46.90
2018-03-18T20:45:58.171Z,37.30
2018-03-18T20:48:25.748Z,45.80
2018-03-18T20:50:53.436Z,40.78
2018-03-18T20:53:21.006Z,38.88
2018-03-18T20:55:48.584Z,44.03
2018-03-18T20:58:16.056Z,41.60
2018-03-18T21:00:44.409Z,49.60
2018-03-18T21:03:11.902Z,34.60
2018-03-18T21:05:40.159Z,36.90
2018-03-18T21:08:08.483Z,46.37
2018-03-18T21:10:35.989Z,43.10
2018-03-18T21:13:03.516Z,49.20
2018-03-18T21:15:31.013Z,43.75
2018-03-18T21:17:59.318Z,56.50
2018-03-18T21:20:26.814Z,38.47
2018-03-18T21:22:54.376Z,49.30
2018-03-18T21:25:21.913Z,47.90
2018-03-18T21:27:49.398Z,56.65
2018-03-18T21:30:16.904Z,33.67
2018-03-18T21:32:44.402Z,51.95
2018-03-18T21:35:11.890Z,50.78
2018-03-18T21:37:40.123Z,38.20
2018-03-18T21:40:07.727Z,56.47
2018-03-18T21:42:35.214Z,68.65
2018-03-18T21:45:02.735Z,33.47
2018-03-18T21:47:30.222Z,43.83
2018-03-18T21:49:58.598Z,44.13
2018-03-18T21:52:26.229Z,46.03
2018-03-18T21:54:53.748Z,39.88
2018-03-18T21:57:21.229Z,32.80
2018-03-18T21:59:48.734Z,44.63
2018-03-18T22:02:16.985Z,38.78
2018-03-18T22:04:44.447Z,33.78
2018-03-18T22:07:11.947Z,36.28
2018-03-18T22:09:39.468Z,36.72
2018-03-18T22:12:06.952Z,37.30
2018-03-18T22:14:34.472Z,36.05
2018-03-18T22:17:01.979Z,39.58
2018-03-18T22:19:29.488Z,37.90
2018-03-18T22:21:57.001Z,37.15
2018-03-18T22:24:24.529Z,32.10
2018-03-18T22:26:52.835Z,37.20
2018-03-18T22:29:20.305Z,32.90
2018-03-18T22:31:47.915Z,33.53
2018-03-18T22:34:15.391Z,37.45
2018-03-18T22:36:43.657Z,30.52
2018-03-18T22:39:11.915Z,33.38
2018-03-18T22:41:39.484Z,30.73
2018-03-18T22:44:06.985Z,32.55
2018-03-18T22:46:34.505Z,28.75
2018-03-18T22:49:02.766Z,33.38
2018-03-18T22:51:30.241Z,34.83
2018-03-18T22:53:58.532Z,30.80
2018-03-18T22:56:26.776Z,30.08
2018-03-18T22:58:54.259Z,37.47
2018-03-18T23:01:22.549Z,35.00
2018-03-18T23:03:50.030Z,27.65
2018-03-18T23:06:17.502Z,31.10
2018-03-18T23:08:45.012Z,29.65
2018-03-18T23:11:13.252Z,28.05
2018-03-18T23:13:40.763Z,34.30
2018-03-18T23:16:08.417Z,27.75
2018-03-18T23:18:36.639Z,26.05
2018-03-18T23:21:04.179Z,31.20
2018-03-18T23:23:31.674Z,28.30
2018-03-18T23:25:59.172Z,33.83
2018-03-18T23:28:26.696Z,28.42
2018-03-18T23:30:54.207Z,32.65
2018-03-18T23:33:21.702Z,33.80
2018-03-18T23:35:49.297Z,30.65
2018-03-18T23:38:16.767Z,29.17
2018-03-18T23:40:44.279Z,28.27
2018-03-18T23:43:11.756Z,28.48
2018-03-18T23:45:40.006Z,24.87
2018-03-18T23:48:07.479Z,27.05
2018-03-18T23:50:36.628Z,35.13
2018-03-18T23:53:04.102Z,33.65
2018-03-18T23:55:31.578Z,25.60
2018-03-18T23:57:59.082Z,29.58
